Time,TemperatureF,DewpointF,PressureIn,WindDirection,WindDirectionDegrees,WindSpeedMPH,WindSpeedGustMPH,Humidity,HourlyPrecipIn,Conditions,Clouds,dailyrainin,SoftwareType,DateUTC
2013-07-20 00:05:00,73.0,72.0,23.99,North,5,0.0,-999.0,98,-99.99,,,0.00,weatherlink.com 1.10,2013-07-20 04:05:00,
2013-07-20 00:20:00,73.0,72.0,23.98,North,5,0.0,-999.0,98,-99.99,,,0.00,weatherlink.com 1.10,2013-07-20 04:20:00,
2013-07-20 00:35:00,73.0,72.0,23.98,North,5,0.0,-999.0,98,-99.99,,,0.00,weatherlink.com 1.10,2013-07-20 04:35:00,
2013-07-20 00:50:00,73.2,73.0,23.99,North,5,0.0,-999.0,98,-99.99,,,0.00,weatherlink.com 1.10,2013-07-20 04:50:00,
2013-07-20 01:05:00,73.3,72.0,23.99,North,5,0.0,-999.0,97,-99.99,,,0.00,weatherlink.com 1.10,2013-07-20 05:05:00,
2013-07-20 01:20:00,73.3,72.0,23.98,North,5,0.0,-999.0,97,-99.99,,,0.00,weatherlink.com 1.10,2013-07-20 05:20:00,
2013-07-20 01:35:00,73.3,72.0,23.98,North,5,0.0,-999.0,97,-99.99,,,0.00,weatherlink.com 1.10,2013-07-20 05:35:00,
2013-07-20 01:50:00,73.4,73.0,23.98,South,183,0.0,-999.0,97,-99.99,,,0.00,weatherlink.com 1.10,2013-07-20 05:50:00,
2013-07-20 02:05:00,73.3,72.0,23.98,North,5,0.0,-999.0,97,-99.99,,,0.00,weatherlink.com 1.10,2013-07-20 06:05:00,
2013-07-20 02:20:00,73.4,73.0,23.98,North,5,0.0,-999.0,97,-99.99,,,0.00,weatherlink.com 1.10,2013-07-20 06:20:00,
2013-07-20 02:35:00,73.4,73.0,23.98,North,5,0.0,-999.0,97,-99.99,,,0.00,weatherlink.com 1.10,2013-07-20 06:35:00,
2013-07-20 02:50:00,73.3,72.0,23.98,North,5,0.0,-999.0,97,-99.99,,,0.00,weatherlink.com 1.10,2013-07-20 06:50:00,
2013-07-20 03:05:00,73.3,72.0,23.99,North,5,0.0,-999.0,97,-99.99,,,0.00,weatherlink.com 1.10,2013-07-20 07:05:00,
2013-07-20 03:20:00,73.2,72.0,23.99,North,5,0.0,-999.0,97,-99.99,,,0.00,weatherlink.com 1.10,2013-07-20 07:20:00,
2013-07-20 03:35:00,73.1,72.0,23.99,North,5,0.0,-999.0,97,-99.99,,,0.00,weatherlink.com 1.10,2013-07-20 07:35:00,
2013-07-20 03:50:00,73.2,72.0,23.99,North,5,0.0,-999.0,97,-99.99,,,0.00,weatherlink.com 1.10,2013-07-20 07:50:00,
2013-07-20 04:05:00,73.2,73.0,23.99,North,5,0.0,-999.0,98,-99.99,,,0.00,weatherlink.com 1.10,2013-07-20 08:05:00,
2013-07-20 04:20:00,73.2,73.0,23.99,North,5,0.0,-999.0,98,-99.99,,,0.00,weatherlink.com 1.10,2013-07-20 08:20:00,
2013-07-20 04:35:00,73.1,73.0,23.99,North,5,0.0,-999.0,98,-99.99,,,0.00,weatherlink.com 1.10,2013-07-20 08:35:00,
2013-07-20 04:50:00,73.1,73.0,23.99,North,5,0.0,-999.0,98,-99.99,,,0.00,weatherlink.com 1.10,2013-07-20 08:50:00,
2013-07-20 05:05:00,73.1,73.0,23.99,North,5,0.0,-999.0,98,-99.99,,,0.00,weatherlink.com 1.10,2013-07-20 09:05:00,
2013-07-20 05:20:00,73.2,73.0,23.99,North,5,0.0,-999.0,98,-99.99,,,0.00,weatherlink.com 1.10,2013-07-20 09:20:00,
2013-07-20 05:35:00,73.2,73.0,23.99,North,5,0.0,-999.0,98,-99.99,,,0.00,weatherlink.com 1.10,2013-07-20 09:35:00,
2013-07-20 05:50:00,73.3,73.0,23.99,North,5,0.0,-999.0,98,-99.99,,,0.00,weatherlink.com 1.10,2013-07-20 09:50:00,
2013-07-20 06:05:00,73.3,73.0,23.99,North,5,0.0,-999.0,98,-99.99,,,0.00,weatherlink.com 1.10,2013-07-20 10:05:00,
2013-07-20 06:20:00,73.3,73.0,23.99,North,5,0.0,-999.0,98,-99.99,,,0.00,weatherlink.com 1.10,2013-07-20 10:20:00,
2013-07-20 06:35:00,73.2,73.0,23.99,SE,135,0.0,-999.0,98,-99.99,,,0.00,weatherlink.com 1.10,2013-07-20 10:35:00,
2013-07-20 06:50:00,73.2,73.0,23.99,ESE,118,0.0,-999.0,98,-99.99,,,0.00,weatherlink.com 1.10,2013-07-20 10:50:00,
2013-07-20 07:05:00,73.2,73.0,23.99,ESE,118,0.0,-999.0,98,-99.99,,,0.00,weatherlink.com 1.10,2013-07-20 11:05:00,
2013-07-20 07:20:00,73.2,73.0,23.99,SE,126,0.0,-999.0,98,-99.99,,,0.00,weatherlink.com 1.10,2013-07-20 11:20:00,
2013-07-20 07:35:00,73.2,73.0,23.99,SE,126,0.0,-999.0,98,-99.99,,,0.00,weatherlink.com 1.10,2013-07-20 11:35:00,
2013-07-20 07:50:00,73.3,73.0,23.99,SE,126,0.0,-999.0,98,-99.99,,,0.00,weatherlink.com 1.10,2013-07-20 11:50:00,
2013-07-20 08:05:00,73.4,73.0,23.99,ENE,69,0.0,-999.0,98,-99.99,,,0.00,weatherlink.com 1.10,2013-07-20 12:05:00,
2013-07-20 08:21:00,73.6,73.0,23.99,East,80,0.0,-999.0,98,-99.99,,,0.00,weatherlink.com 1.10,2013-07-20 12:21:00,
2013-07-20 08:36:00,73.9,73.0,23.99,East,87,0.0,-999.0,98,-99.99,,,0.00,weatherlink.com 1.10,2013-07-20 12:36:00,
2013-07-20 08:51:00,74.0,73.0,23.99,East,87,0.0,-999.0,98,-99.99,,,0.00,weatherlink.com 1.10,2013-07-20 12:51:00,
2013-07-20 09:06:00,74.3,74.0,23.99,ESE,108,0.0,-999.0,98,-99.99,,,0.00,weatherlink.com 1.10,2013-07-20 13:06:00,
2013-07-20 09:21:00,75.1,75.0,23.99,ESE,108,0.0,-999.0,98,-99.99,,,0.00,weatherlink.com 1.10,2013-07-20 13:21:00,
2013-07-20 09:36:00,75.9,75.0,23.99,ESE,110,0.0,-999.0,98,-99.99,,,0.00,weatherlink.com 1.10,2013-07-20 13:36:00,
2013-07-20 09:51:00,76.5,76.0,23.99,North,5,0.0,-999.0,98,-99.99,,,0.00,weatherlink.com 1.10,2013-07-20 13:51:00,
2013-07-20 10:06:00,77.7,77.0,23.99,North,5,0.0,-999.0,97,-99.99,,,0.00,weatherlink.com 1.10,2013-07-20 14:06:00,
2013-07-20 10:21:00,78.7,78.0,23.98,North,5,3.0,-999.0,96,-99.99,,,0.00,weatherlink.com 1.10,2013-07-20 14:21:00,
2013-07-20 10:36:00,79.7,78.0,23.98,North,5,2.0,-999.0,95,-99.99,,,0.00,weatherlink.com 1.10,2013-07-20 14:36:00,
2013-07-20 10:51:00,80.8,79.0,23.99,North,5,4.0,-999.0,93,-99.99,,,0.00,weatherlink.com 1.10,2013-07-20 14:51:00,
2013-07-20 11:06:00,81.4,79.0,23.98,SSE,151,5.0,-999.0,91,-99.99,,,0.00,weatherlink.com 1.10,2013-07-20 15:06:00,
2013-07-20 11:21:00,81.9,78.0,23.98,North,5,5.0,-999.0,89,-99.99,,,0.00,weatherlink.com 1.10,2013-07-20 15:21:00,
2013-07-20 11:36:00,83.2,79.0,23.98,North,5,0.0,-999.0,87,-99.99,,,0.00,weatherlink.com 1.10,2013-07-20 15:36:00,
2013-07-20 11:51:00,82.9,78.0,23.98,SSE,165,3.0,-999.0,86,-99.99,,,0.00,weatherlink.com 1.10,2013-07-20 15:51:00,
2013-07-20 12:06:00,83.6,78.0,23.99,SE,138,3.0,-999.0,84,-99.99,,,0.00,weatherlink.com 1.10,2013-07-20 16:06:00,
2013-07-20 12:21:00,84.1,79.0,23.99,North,5,0.0,-999.0,83,-99.99,,,0.00,weatherlink.com 1.10,2013-07-20 16:21:00,
2013-07-20 12:36:00,84.5,78.0,23.99,North,5,7.0,-999.0,81,-99.99,,,0.00,weatherlink.com 1.10,2013-07-20 16:36:00,
2013-07-20 12:51:00,85.1,78.0,23.98,North,5,3.0,-999.0,78,-99.99,,,0.00,weatherlink.com 1.10,2013-07-20 16:51:00,
2013-07-20 13:06:00,85.0,77.0,23.98,North,5,4.0,-999.0,78,-99.99,,,0.00,weatherlink.com 1.10,2013-07-20 17:06:00,
2013-07-20 13:21:00,86.9,79.0,23.97,North,5,0.0,-999.0,77,-99.99,,,0.00,weatherlink.com 1.10,2013-07-20 17:21:00,
2013-07-20 13:36:00,87.4,77.0,23.98,North,5,4.0,-999.0,71,-99.99,,,0.00,weatherlink.com 1.10,2013-07-20 17:36:00,
2013-07-20 13:51:00,87.9,78.0,23.98,North,5,5.0,-999.0,73,-99.99,,,0.00,weatherlink.com 1.10,2013-07-20 17:51:00,
2013-07-20 14:06:00,87.5,78.0,23.96,North,5,7.0,-999.0,73,-99.99,,,0.00,weatherlink.com 1.10,2013-07-20 18:06:00,
2013-07-20 14:21:00,89.1,78.0,23.97,North,5,9.0,-999.0,70,-99.99,,,0.00,weatherlink.com 1.10,2013-07-20 18:21:00,
2013-07-20 14:36:00,87.3,76.0,23.98,North,5,6.0,-999.0,70,-99.99,,,0.00,weatherlink.com 1.10,2013-07-20 18:36:00,
2013-07-20 14:51:00,86.9,79.0,23.98,North,5,0.0,-999.0,76,-99.99,,,0.00,weatherlink.com 1.10,2013-07-20 18:51:00,
2013-07-20 15:06:00,86.1,78.0,23.97,North,5,0.0,-999.0,76,-99.99,,,0.00,weatherlink.com 1.10,2013-07-20 19:06:00,
2013-07-20 15:36:00,88.7,76.0,23.96,North,5,0.0,-999.0,67,-99.99,,,0.00,weatherlink.com 1.10,2013-07-20 19:36:00,
2013-07-20 16:06:00,88.2,76.0,23.95,North,5,4.0,-999.0,68,-99.99,,,0.00,weatherlink.com 1.10,2013-07-20 20:06:00,
2013-07-20 16:21:00,88.0,77.0,23.95,ESE,118,0.0,-999.0,69,-99.99,,,0.00,weatherlink.com 1.10,2013-07-20 20:21:00,
2013-07-20 16:36:00,89.9,77.0,23.95,North,5,0.0,-999.0,66,-99.99,,,0.00,weatherlink.com 1.10,2013-07-20 20:36:00,
2013-07-20 16:51:00,89.0,76.0,23.95,North,5,0.0,-999.0,65,-99.99,,,0.00,weatherlink.com 1.10,2013-07-20 20:51:00,
2013-07-20 17:07:00,83.4,74.0,23.95,SE,133,6.0,-999.0,72,-99.99,,,0.00,weatherlink.com 1.10,2013-07-20 21:07:00,
2013-07-20 17:22:00,81.8,74.0,23.98,ESE,107,3.0,-999.0,76,-99.99,,,0.00,weatherlink.com 1.10,2013-07-20 21:22:00,
2013-07-20 17:37:00,75.8,71.0,23.99,North,5,1.0,-999.0,84,-99.99,,,0.25,weatherlink.com 1.10,2013-07-20 21:37:00,
2013-07-20 17:52:00,73.6,71.0,23.99,North,5,0.0,-999.0,90,-99.99,,,0.51,weatherlink.com 1.10,2013-07-20 21:52:00,
2013-07-20 18:07:00,74.0,72.0,23.99,North,5,0.0,-999.0,93,-99.99,,,0.58,weatherlink.com 1.10,2013-07-20 22:07:00,
2013-07-20 18:37:00,74.5,73.0,23.99,North,5,0.0,-999.0,94,-99.99,,,0.59,weatherlink.com 1.10,2013-07-20 22:37:00,
2013-07-20 18:52:00,74.5,73.0,23.99,North,5,0.0,-999.0,94,-99.99,,,0.60,weatherlink.com 1.10,2013-07-20 22:52:00,
2013-07-20 19:07:00,74.3,73.0,23.99,North,5,0.0,-999.0,95,-99.99,,,0.64,weatherlink.com 1.10,2013-07-20 23:07:00,
2013-07-20 19:37:00,75.3,74.0,23.99,North,5,0.0,-999.0,96,-99.99,,,0.65,weatherlink.com 1.10,2013-07-20 23:37:00,
2013-07-20 19:52:00,75.5,74.0,23.99,North,5,0.0,-999.0,96,-99.99,,,0.66,weatherlink.com 1.10,2013-07-20 23:52:00,
2013-07-20 20:07:00,75.2,74.0,23.99,ESE,118,0.0,-999.0,96,-99.99,,,0.68,weatherlink.com 1.10,2013-07-21 00:07:00,
2013-07-20 20:22:00,75.0,74.0,23.99,ESE,118,0.0,-999.0,96,-99.99,,,0.73,weatherlink.com 1.10,2013-07-21 00:22:00,
2013-07-20 20:37:00,74.8,74.0,23.99,ESE,118,0.0,-999.0,96,-99.99,,,0.76,weatherlink.com 1.10,2013-07-21 00:37:00,
2013-07-20 20:52:00,74.7,74.0,23.97,ESE,118,0.0,-999.0,96,-99.99,,,0.78,weatherlink.com 1.10,2013-07-21 00:52:00,
2013-07-20 21:07:00,74.4,73.0,23.99,ESE,118,0.0,-999.0,96,-99.99,,,0.79,weatherlink.com 1.10,2013-07-21 01:07:00,
2013-07-20 21:37:00,74.3,73.0,23.99,ESE,117,0.0,-999.0,97,-99.99,,,0.79,weatherlink.com 1.10,2013-07-21 01:37:00,
2013-07-20 21:52:00,74.3,73.0,23.99,ESE,117,0.0,-999.0,97,-99.99,,,0.80,weatherlink.com 1.10,2013-07-21 01:52:00,
2013-07-20 22:07:00,74.2,73.0,23.99,ESE,117,0.0,-999.0,97,-99.99,,,0.80,weatherlink.com 1.10,2013-07-21 02:07:00,
2013-07-20 22:22:00,74.3,73.0,23.99,ESE,117,0.0,-999.0,97,-99.99,,,0.80,weatherlink.com 1.10,2013-07-21 02:22:00,
2013-07-20 22:52:00,74.1,73.0,23.98,ESE,117,0.0,-999.0,97,-99.99,,,0.80,weatherlink.com 1.10,2013-07-21 02:52:00,
2013-07-20 23:07:00,74.1,73.0,23.99,ESE,116,0.0,-999.0,97,-99.99,,,0.80,weatherlink.com 1.10,2013-07-21 03:07:00,
2013-07-20 23:22:00,74.1,73.0,23.99,ESE,116,0.0,-999.0,97,-99.99,,,0.80,weatherlink.com 1.10,2013-07-21 03:22:00,